Time;durP1;ratioP1;P1;durP2;ratioP2;P2;SDS_P1;SDS_P2;PMS_P1;PMS_P2;Temp;Humidity;BMP_temperature;BMP_pressure;BME280_temperature;BME280_humidity;BME280_pressure;Samples;Min_cycle;Max_cycle;Signal;HPM_P1;HPM_P2
2022/01/17 00:02:00;;;;;;;;;54.50;39.00;;;;;6.49;73.84;102674.50;5098807;27;45215;-62
2022/01/17 00:04:26;;;;;;;;;53.00;39.25;;;;;6.49;73.74;102674.50;5097729;27;69558;-62
2022/01/17 00:06:51;;;;;;;;;55.75;42.25;;;;;6.49;73.87;102673.63;5080538;27;45273;-63
2022/01/17 00:09:18;;;;;;;;;56.00;41.75;;;;;6.50;73.92;102670.13;5098926;27;45264;-64
2022/01/17 00:11:47;;;;;;;;;53.25;40.25;;;;;6.49;73.89;102665.81;5098709;27;45378;-61
2022/01/17 00:14:17;;;;;;;;;58.00;41.00;;;;;6.48;73.96;102664.97;5098374;27;45330;-65
2022/01/17 00:16:46;;;;;;;;;59.50;41.25;;;;;6.47;73.68;102670.22;5080078;27;45193;-62
2022/01/17 00:19:34;;;;;;;;;58.75;43.50;;;;;6.45;74.20;102667.69;5098568;27;45399;-62
2022/01/17 00:22:00;;;;;;;;;58.50;44.25;;;;;6.44;74.09;102665.13;5098484;27;45327;-64
2022/01/17 00:24:25;;;;;;;;;53.00;39.75;;;;;6.44;74.04;102667.72;5097698;27;60290;-65
2022/01/17 00:26:52;;;;;;;;;56.25;43.75;;;;;6.45;74.11;102667.69;5097829;27;55940;-63
2022/01/17 00:29:17;;;;;;;;;55.75;39.75;;;;;6.45;74.20;102659.00;5079315;27;45509;-62
2022/01/17 00:31:43;;;;;;;;;58.75;42.50;;;;;6.46;74.19;102663.31;5080070;27;45425;-63
2022/01/17 00:34:08;;;;;;;;;52.75;40.50;;;;;6.48;74.02;102664.09;5097343;27;60201;-65
2022/01/17 00:36:33;;;;;;;;;52.25;39.50;;;;;6.49;74.07;102663.19;5097304;27;65475;-64
2022/01/17 00:38:59;;;;;;;;;52.75;41.00;;;;;6.49;74.07;102663.19;5097378;27;60303;-62
2022/01/17 00:41:24;;;;;;;;;56.25;42.50;;;;;6.49;73.95;102677.13;5097068;27;67518;-61
2022/01/17 00:43:50;;;;;;;;;56.25;42.75;;;;;6.52;74.19;102681.38;5097019;27;71980;-61
2022/01/17 00:46:16;;;;;;;;;57.00;42.50;;;;;6.53;73.94;102677.84;5079701;27;45769;-62
2022/01/17 00:48:41;;;;;;;;;53.00;43.00;;;;;6.53;73.97;102670.88;5098004;27;45307;-62
2022/01/17 00:51:06;;;;;;;;;50.75;40.25;;;;;6.52;73.81;102676.13;5097072;27;68831;-63
2022/01/17 00:53:36;;;;;;;;;49.00;40.25;;;;;6.49;73.87;102677.13;5078555;27;70199;-62
2022/01/17 00:56:02;;;;;;;;;60.25;43.25;;;;;6.51;73.91;102677.03;5097807;27;45319;-63
2022/01/17 00:58:27;;;;;;;;;56.25;41.25;;;;;6.52;74.00;102665.69;5062542;27;45335;-63
2022/01/17 01:00:53;;;;;;;;;59.75;46.00;;;;;6.52;73.91;102656.13;5097174;27;60303;-63
2022/01/17 01:03:18;;;;;;;;;55.00;44.00;;;;;6.51;73.85;102656.16;5096731;27;69927;-63
2022/01/17 01:05:43;;;;;;;;;57.25;44.50;;;;;6.49;74.09;102653.63;5078298;27;71607;-62
2022/01/17 01:08:09;;;;;;;;;61.75;47.00;;;;;6.49;74.05;102651.00;5097696;27;45225;-62
2022/01/17 01:10:34;;;;;;;;;57.25;45.00;;;;;6.48;74.06;102659.75;5096797;27;68670;-63
2022/01/17 01:13:00;;;;;;;;;57.75;45.00;;;;;6.48;74.09;102662.34;5097188;27;52398;-61
2022/01/17 01:18:37;;;;;;;;;65.25;49.25;;;;;6.47;74.13;102665.88;5097715;27;45331;-61
2022/01/17 01:29:10;;;;;;;;;65.50;51.00;;;;;6.45;74.45;102653.75;5097339;27;45318;-63
2022/01/17 01:31:55;;;;;;;;;64.25;48.25;;;;;6.44;74.51;102660.75;5078773;27;54070;-63
2022/01/17 01:34:31;;;;;;;;;68.50;49.75;;;;;6.44;74.56;102662.50;5097148;27;45541;-64
2022/01/17 01:36:56;;;;;;;;;64.00;48.00;;;;;6.45;74.51;102665.06;5078816;27;45850;-61
2022/01/17 01:39:24;;;;;;;;;63.00;48.00;;;;;6.46;74.37;102658.94;5096834;27;45410;-61
2022/01/17 01:41:49;;;;;;;;;64.25;48.00;;;;;6.48;74.38;102661.50;5096929;27;45303;-62
2022/01/17 01:44:16;;;;;;;;;65.50;48.00;;;;;6.49;74.40;102660.59;5096776;27;57580;-61
2022/01/17 01:46:42;;;;;;;;;57.00;45.75;;;;;6.51;74.27;102666.59;5078954;27;45793;-62
2022/01/17 01:49:07;;;;;;;;;64.00;49.00;;;;;6.52;74.38;102668.31;5061933;27;45450;-64
2022/01/17 01:51:33;;;;;;;;;59.25;46.00;;;;;6.54;74.20;102671.72;5078866;27;45365;-62
2022/01/17 01:53:58;;;;;;;;;55.25;44.75;;;;;6.56;74.23;102671.66;5095956;27;71111;-62
2022/01/17 01:56:23;;;;;;;;;56.50;40.50;;;;;6.55;74.01;102683.88;5096260;27;65410;-61
2022/01/17 01:58:49;;;;;;;;;61.75;45.00;;;;;6.56;74.08;102680.34;5095973;27;67800;-64
2022/01/17 02:01:14;;;;;;;;;57.00;45.75;;;;;6.57;73.99;102679.44;5077754;27;70413;-63
2022/01/17 02:03:40;;;;;;;;;60.50;49.50;;;;;6.58;74.07;102683.75;5095923;27;66865;-63
2022/01/17 02:06:05;;;;;;;;;56.50;44.75;;;;;6.58;73.95;102688.97;5096177;27;66204;-64
2022/01/17 02:08:30;;;;;;;;;57.00;42.50;;;;;6.58;73.82;102685.53;5095974;27;69681;-62
2022/01/17 02:10:57;;;;;;;;;57.75;44.75;;;;;6.60;74.02;102689.78;5078725;27;45620;-61
2022/01/17 02:13:22;;;;;;;;;62.50;45.75;;;;;6.58;73.94;102683.75;5096575;27;46398;-61
2022/01/17 02:15:49;;;;;;;;;63.50;45.50;;;;;6.61;74.02;102688.88;5095673;27;71654;-63
2022/01/17 02:18:22;;;;;;;;;58.75;46.00;;;;;6.62;74.07;102687.97;5096840;27;45303;-62
2022/01/17 02:21:09;;;;;;;;;60.25;43.50;;;;;6.64;73.94;102678.31;5079320;27;45388;-63
2022/01/17 02:23:33;;;;;;;;;57.75;45.50;;;;;6.65;73.93;102680.00;5081244;27;45473;-62
2022/01/17 02:25:58;;;;;;;;;59.25;43.25;;;;;6.67;73.92;102677.31;5078321;27;45451;-65
2022/01/17 02:28:23;;;;;;;;;65.50;46.50;;;;;6.68;73.69;102679.91;5096045;27;62484;-63
2022/01/17 02:30:49;;;;;;;;;57.00;45.75;;;;;6.68;73.88;102673.81;5095790;27;66064;-62
2022/01/17 02:33:14;;;;;;;;;62.75;47.50;;;;;6.68;73.82;102669.44;5077343;27;70634;-61
2022/01/17 02:35:39;;;;;;;;;59.00;46.00;;;;;6.70;73.77;102671.16;5095635;27;65327;-63
2022/01/17 02:38:05;;;;;;;;;56.75;43.00;;;;;6.72;73.70;102669.34;5096092;27;58813;-61
2022/01/17 02:40:30;;;;;;;;;58.25;45.25;;;;;6.71;73.69;102665.84;5096016;27;58561;-61
2022/01/17 02:43:01;;;;;;;;;66.50;48.75;;;;;6.72;73.72;102670.16;5095495;27;45413;-63
2022/01/17 02:45:33;;;;;;;;;63.00;46.75;;;;;6.73;73.62;102660.59;5096509;27;45822;-64
2022/01/17 02:47:59;;;;;;;;;67.25;47.50;;;;;6.72;73.60;102653.66;5078141;27;45362;-65
2022/01/17 02:50:25;;;;;;;;;59.50;43.50;;;;;6.72;73.54;102659.72;5078333;27;45374;-63
2022/01/17 02:52:50;;;;;;;;;61.75;47.00;;;;;6.73;73.41;102663.19;5080772;27;45524;-62
2022/01/17 02:55:16;;;;;;;;;59.75;44.25;;;;;6.75;73.61;102664.00;5098883;27;73274;-62
2022/01/17 02:57:41;;;;;;;;;63.00;48.25;;;;;6.75;73.60;102672.66;5098971;27;67118;-63
2022/01/17 03:00:10;;;;;;;;;64.50;45.50;;;;;6.76;73.52;102670.91;5099179;27;61684;-61
2022/01/17 03:02:36;;;;;;;;;60.50;46.75;;;;;6.76;73.61;102671.75;5081354;27;47288;-62
2022/01/17 03:05:01;;;;;;;;;61.00;44.00;;;;;6.77;73.50;102677.84;5098715;27;68586;-62
2022/01/17 03:07:27;;;;;;;;;65.25;47.25;;;;;6.76;73.60;102674.38;5098968;27;59016;-64
2022/01/17 03:10:02;;;;;;;;;57.75;44.75;;;;;6.76;73.37;102681.38;5098955;27;60537;-61
2022/01/17 03:12:30;;;;;;;;;55.75;44.00;;;;;6.77;73.17;102690.91;5099534;27;46599;-62
2022/01/17 03:14:56;;;;;;;;;57.75;41.75;;;;;6.77;73.39;102701.38;5081579;27;45410;-63
2022/01/17 03:17:21;;;;;;;;;59.00;44.75;;;;;6.76;73.45;102697.03;5081382;27;45471;-63
2022/01/17 03:19:47;;;;;;;;;59.75;43.25;;;;;6.76;73.67;102697.03;5099032;27;53918;-63
2022/01/17 03:22:12;;;;;;;;;53.25;39.75;;;;;6.77;73.28;102703.97;5098472;27;70297;-62
2022/01/17 03:24:37;;;;;;;;;56.50;43.75;;;;;6.75;73.38;102706.63;5080347;27;65734;-64
2022/01/17 03:27:03;;;;;;;;;61.75;44.25;;;;;6.73;73.38;102699.78;5098475;27;65192;-63
2022/01/17 03:29:28;;;;;;;;;59.25;42.50;;;;;6.72;73.57;102696.28;5080852;27;45573;-62
2022/01/17 03:31:54;;;;;;;;;58.50;45.75;;;;;6.72;73.43;102698.91;5098352;27;70433;-61
2022/01/17 03:34:19;;;;;;;;;54.50;42.75;;;;;6.70;73.29;102708.56;5097873;27;71917;-64
2022/01/17 03:36:45;;;;;;;;;57.50;42.00;;;;;6.67;73.67;102704.31;5099057;27;45412;-61
2022/01/17 03:39:10;;;;;;;;;58.25;43.00;;;;;6.68;73.53;102705.16;5099153;27;45495;-61
2022/01/17 03:41:36;;;;;;;;;55.50;43.50;;;;;6.66;73.71;102702.59;5097908;27;45350;-63
2022/01/17 03:44:01;;;;;;;;;58.50;43.00;;;;;6.66;73.88;102697.38;5079733;27;64649;-64
2022/01/17 03:46:26;;;;;;;;;57.75;45.50;;;;;6.66;73.70;102707.84;5098175;27;58444;-63
2022/01/17 03:48:52;;;;;;;;;57.25;43.25;;;;;6.67;73.79;102708.66;5098701;27;45517;-63
2022/01/17 03:51:17;;;;;;;;;57.25;43.25;;;;;6.66;73.78;102715.66;5098313;27;53420;-63
2022/01/17 03:53:43;;;;;;;;;54.25;38.50;;;;;6.65;73.81;102724.41;5097763;27;67297;-63
2022/01/17 03:56:08;;;;;;;;;54.50;41.25;;;;;6.66;73.87;102722.63;5097872;27;67168;-63
2022/01/17 03:58:33;;;;;;;;;62.00;45.25;;;;;6.68;73.82;102726.91;5098814;27;45232;-61
2022/01/17 04:00:59;;;;;;;;;57.75;44.25;;;;;6.70;73.89;102733.84;5080110;27;48504;-64
2022/01/17 04:03:24;;;;;;;;;56.50;41.75;;;;;6.71;73.72;102735.56;5097620;27;45414;-63
2022/01/17 04:05:50;;;;;;;;;59.50;42.00;;;;;6.70;73.75;102726.84;5097809;27;68921;-63
2022/01/17 04:08:15;;;;;;;;;57.50;42.50;;;;;6.69;73.83;102732.97;5080181;27;45715;-64
2022/01/17 04:10:41;;;;;;;;;55.75;43.25;;;;;6.70;73.94;102734.69;5097373;27;72759;-63
2022/01/17 04:13:08;;;;;;;;;58.75;44.75;;;;;6.69;73.86;102746.03;5080122;27;45481;-64
2022/01/17 04:15:35;;;;;;;;;59.00;42.50;;;;;6.69;73.83;102746.03;5063401;27;45411;-64
2022/01/17 04:18:00;;;;;;;;;54.00;42.25;;;;;6.70;73.80;102749.53;5081659;27;45442;-63
2022/01/17 04:20:27;;;;;;;;;62.25;44.25;;;;;6.70;73.77;102752.97;5100605;27;45682;-64
2022/01/17 04:22:54;;;;;;;;;59.00;47.00;;;;;6.72;73.88;102755.53;5118977;27;45651;-62
2022/01/17 04:25:23;;;;;;;;;56.50;44.00;;;;;6.74;73.65;102746.72;5119204;27;45292;-63
2022/01/17 04:27:48;;;;;;;;;57.00;42.00;;;;;6.72;73.63;102738.09;5119148;27;45363;-61
2022/01/17 04:30:14;;;;;;;;;59.00;43.00;;;;;6.72;73.65;102724.19;5100183;27;46646;-61
2022/01/17 04:32:42;;;;;;;;;63.00;44.25;;;;;6.70;73.71;102723.41;5099376;27;69174;-64
2022/01/17 04:35:09;;;;;;;;;56.00;41.00;;;;;6.68;73.76;102724.31;5119075;27;45384;-61
2022/01/17 04:37:34;;;;;;;;;62.50;46.75;;;;;6.68;73.66;102726.91;5118880;27;45392;-63
2022/01/17 04:40:00;;;;;;;;;54.75;42.00;;;;;6.68;73.80;102736.50;5117573;27;75560;-63
2022/01/17 04:42:28;;;;;;;;;54.75;45.50;;;;;6.68;73.87;102742.59;5117968;27;64587;-63
2022/01/17 04:45:10;;;;;;;;;54.75;40.75;;;;;6.68;73.80;102736.50;5118850;27;45405;-62
2022/01/17 04:47:36;;;;;;;;;61.25;44.75;;;;;6.68;73.82;102747.81;5102912;27;45425;-64
2022/01/17 04:50:03;;;;;;;;;60.00;43.25;;;;;6.68;73.87;102741.72;5118433;27;45507;-63
2022/01/17 04:52:29;;;;;;;;;52.75;42.00;;;;;6.67;73.86;102740.88;5118505;27;45873;-61
2022/01/17 04:54:59;;;;;;;;;51.00;41.25;;;;;6.67;73.82;102745.25;5118212;27;49810;-65
2022/01/17 04:57:25;;;;;;;;;56.00;43.50;;;;;6.66;73.77;102733.09;5118570;27;45184;-64
2022/01/17 04:59:50;;;;;;;;;56.00;41.50;;;;;6.65;73.81;102741.84;5065875;27;46158;-62
2022/01/17 05:02:17;;;;;;;;;53.75;43.00;;;;;6.65;73.88;102741.84;5118146;27;45347;-65
2022/01/17 05:04:45;;;;;;;;;54.25;41.75;;;;;6.65;73.83;102745.31;5118454;27;45390;-62
2022/01/17 05:07:11;;;;;;;;;54.00;40.50;;;;;6.64;73.71;102751.44;5118414;27;45437;-62
2022/01/17 05:09:38;;;;;;;;;57.00;41.75;;;;;6.65;73.66;102762.72;5118263;27;46326;-62
2022/01/17 05:12:04;;;;;;;;;57.00;41.00;;;;;6.63;73.53;102761.94;5118151;27;45735;-64
2022/01/17 05:14:29;;;;;;;;;55.00;38.50;;;;;6.62;73.73;102765.50;5118117;27;45371;-62
2022/01/17 05:17:03;;;;;;;;;56.50;43.50;;;;;6.63;73.73;102757.56;5118375;27;45253;-63
2022/01/17 05:22:12;;;;;;;;;53.25;40.00;;;;;6.59;73.56;102758.59;5118066;27;45754;-64
2022/01/17 05:24:38;;;;;;;;;58.50;44.50;;;;;6.59;73.46;102762.97;5117056;27;69371;-63
2022/01/17 05:27:03;;;;;;;;;55.50;43.00;;;;;6.56;73.39;102763.94;5118142;27;45513;-62
2022/01/17 05:29:29;;;;;;;;;55.00;41.50;;;;;6.53;73.34;102764.03;5117574;27;47082;-61
2022/01/17 05:31:54;;;;;;;;;59.00;44.00;;;;;6.51;73.27;102765.84;5117152;27;60002;-62
2022/01/17 05:34:19;;;;;;;;;52.25;42.50;;;;;6.48;73.37;102771.19;5117489;27;46648;-62
2022/01/17 05:36:45;;;;;;;;;54.75;41.25;;;;;6.45;73.22;102766.94;5116942;27;67574;-60
2022/01/17 05:39:10;;;;;;;;;58.00;41.50;;;;;6.42;73.12;102767.03;5116525;27;74487;-63
2022/01/17 05:41:35;;;;;;;;;61.00;45.75;;;;;6.39;72.98;102769.75;5117236;27;56429;-61
2022/01/17 05:44:01;;;;;;;;;60.00;44.25;;;;;6.37;73.22;102771.56;5098686;27;61064;-62
2022/01/17 05:46:26;;;;;;;;;56.50;41.75;;;;;6.34;73.23;102775.16;5098957;27;52688;-63
2022/01/17 05:48:52;;;;;;;;;58.75;45.50;;;;;6.30;73.22;102772.66;5117606;27;46194;-62
2022/01/17 05:51:17;;;;;;;;;60.75;41.00;;;;;6.28;73.08;102779.72;5116854;27;67568;-62
2022/01/17 05:53:42;;;;;;;;;58.75;43.25;;;;;6.22;73.07;102778.16;5117026;27;60898;-64
2022/01/17 05:56:08;;;;;;;;;60.50;42.50;;;;;6.17;73.17;102765.25;5117114;27;58684;-62
2022/01/17 05:58:33;;;;;;;;;55.50;44.00;;;;;6.15;73.20;102758.41;5098150;27;71476;-61
2022/01/17 06:00:59;;;;;;;;;52.00;39.50;;;;;6.13;73.24;102755.81;5098280;27;71260;-61
2022/01/17 06:03:25;;;;;;;;;62.25;47.00;;;;;6.12;73.36;102768.94;5117609;27;45378;-62
2022/01/17 06:05:51;;;;;;;;;62.50;46.25;;;;;6.11;73.41;102777.66;5117346;27;45398;-63
2022/01/17 06:08:17;;;;;;;;;61.25;44.00;;;;;6.08;73.54;102778.66;5117223;27;46647;-62
2022/01/17 06:10:42;;;;;;;;;59.50;44.00;;;;;6.04;73.74;102782.25;5117250;27;45386;-61
2022/01/17 06:13:07;;;;;;;;;60.50;44.75;;;;;6.02;73.57;102790.13;5098040;27;62244;-61
2022/01/17 06:15:33;;;;;;;;;61.75;47.50;;;;;5.98;73.69;102788.47;5117073;27;51686;-62
2022/01/17 06:17:58;;;;;;;;;58.25;43.50;;;;;5.96;73.92;102789.44;5116612;27;56681;-64
2022/01/17 06:20:23;;;;;;;;;62.25;45.25;;;;;5.95;73.95;102788.56;5116148;27;60931;-62
2022/01/17 06:22:49;;;;;;;;;56.50;44.75;;;;;5.94;74.09;102807.75;5117026;27;45187;-62
2022/01/17 06:25:14;;;;;;;;;54.75;41.75;;;;;5.90;73.97;102803.53;5097643;27;56185;-62
2022/01/17 06:27:40;;;;;;;;;57.00;43.50;;;;;5.87;74.15;102798.41;5119612;27;46431;-62
2022/01/17 06:30:07;;;;;;;;;54.25;40.00;;;;;5.86;74.10;102794.09;5119594;27;71376;-63
2022/01/17 06:32:32;;;;;;;;;57.50;41.75;;;;;5.81;74.22;102803.84;5120747;27;45450;-63
2022/01/17 06:34:58;;;;;;;;;58.00;41.00;;;;;5.79;74.44;102809.09;5101905;27;53298;-62
2022/01/17 06:37:24;;;;;;;;;53.25;41.50;;;;;5.76;74.43;102815.28;5100976;27;67339;-64
2022/01/17 06:39:50;;;;;;;;;61.25;47.25;;;;;5.73;74.54;102828.41;5120486;27;45910;-62
2022/01/17 06:42:15;;;;;;;;;65.25;50.25;;;;;5.71;74.70;102826.75;5102092;27;45311;-61
2022/01/17 06:44:41;;;;;;;;;57.25;44.50;;;;;5.67;74.69;102836.44;5119634;27;56599;-63
2022/01/17 06:47:07;;;;;;;;;54.50;42.00;;;;;5.61;74.75;102836.63;5119197;27;72478;-63
2022/01/17 06:49:32;;;;;;;;;57.75;44.00;;;;;5.58;74.88;102845.38;5101864;27;45417;-62
2022/01/17 06:51:57;;;;;;;;;59.50;45.00;;;;;5.55;74.89;102861.13;5119367;27;64076;-64
2022/01/17 06:54:23;;;;;;;;;56.00;42.00;;;;;5.54;74.83;102850.72;5119248;27;62039;-62
2022/01/17 06:56:48;;;;;;;;;52.25;41.25;;;;;5.48;74.78;102831.75;5119054;27;73125;-61
2022/01/17 06:59:14;;;;;;;;;58.50;44.75;;;;;5.45;75.01;102829.25;5120211;27;45253;-62
2022/01/17 07:01:40;;;;;;;;;74.25;56.75;;;;;5.42;75.20;102825.88;5120124;27;45317;-64
2022/01/17 07:04:05;;;;;;;;;73.75;53.50;;;;;5.39;75.13;102820.75;5100890;27;45544;-63
2022/01/17 07:06:31;;;;;;;;;72.75;54.25;;;;;5.38;75.24;102832.94;5100973;27;46524;-61
2022/01/17 07:08:56;;;;;;;;;76.75;56.75;;;;;5.36;75.30;102842.53;5119704;27;45441;-61
2022/01/17 07:11:21;;;;;;;;;88.50;62.75;;;;;5.35;75.09;102830.41;5119096;27;64044;-62
2022/01/17 07:13:47;;;;;;;;;66.25;50.50;;;;;5.34;74.92;102849.56;5119698;27;47805;-62
2022/01/17 07:16:12;;;;;;;;;64.50;50.25;;;;;5.33;74.76;102868.69;5084275;27;46016;-61
2022/01/17 07:18:38;;;;;;;;;59.50;46.50;;;;;5.30;74.88;102887.91;5100452;27;66528;-61
2022/01/17 07:21:03;;;;;;;;;58.00;45.25;;;;;5.29;74.69;102899.22;5118926;27;59059;-64
2022/01/17 07:23:28;;;;;;;;;56.00;43.50;;;;;5.26;74.61;102907.13;5118607;27;63069;-61
2022/01/17 07:25:54;;;;;;;;;56.75;43.00;;;;;5.22;74.57;102902.06;5119595;27;45252;-63
2022/01/17 07:28:19;;;;;;;;;62.00;49.50;;;;;5.20;74.61;102917.72;5118435;27;73005;-62
2022/01/17 07:30:45;;;;;;;;;64.25;48.25;;;;;5.20;74.58;102894.28;5118974;27;54678;-61
2022/01/17 07:33:10;;;;;;;;;63.25;46.50;;;;;5.20;74.26;102887.31;5119231;27;45416;-62
2022/01/17 07:35:36;;;;;;;;;61.00;45.25;;;;;5.18;74.21;102878.69;5118584;27;69829;-63
2022/01/17 07:38:01;;;;;;;;;62.50;48.50;;;;;5.17;74.25;102874.38;5100050;27;45378;-64
2022/01/17 07:40:27;;;;;;;;;60.75;46.00;;;;;5.16;74.09;102888.31;5119818;27;45481;-63
2022/01/17 07:42:52;;;;;;;;;68.00;52.25;;;;;5.14;74.09;102890.09;5101346;27;45511;-65
2022/01/17 07:45:19;;;;;;;;;72.25;52.75;;;;;5.14;74.32;102891.81;5100772;27;45339;-63
2022/01/17 07:48:07;;;;;;;;;66.25;50.00;;;;;5.13;74.27;102877.97;5083446;27;45691;-63
2022/01/17 07:50:30;;;;;;;;;71.00;52.25;;;;;5.13;74.16;102887.50;5119447;27;45394;-63
2022/01/17 07:52:56;;;;;;;;;76.00;55.50;;;;;5.12;74.24;102884.06;5118607;27;65701;-64
2022/01/17 07:55:21;;;;;;;;;67.75;55.25;;;;;5.15;74.16;102903.97;5099552;27;67665;-63
2022/01/17 07:57:47;;;;;;;;;65.00;48.25;;;;;5.14;73.98;102897.91;5100265;27;45399;-65
2022/01/17 08:00:20;;;;;;;;;72.25;54.00;;;;;5.15;74.11;102910.03;5100987;27;45301;-64
2022/01/17 08:02:45;;;;;;;;;73.50;55.00;;;;;5.14;73.88;102908.34;5085428;27;45170;-64
2022/01/17 08:05:14;;;;;;;;;67.75;51.00;;;;;5.16;73.81;102897.84;5118892;27;46602;-62
2022/01/17 08:07:40;;;;;;;;;68.25;52.50;;;;;5.19;73.95;102918.63;5119224;27;45927;-64
2022/01/17 08:10:12;;;;;;;;;75.00;55.25;;;;;5.18;73.82;102915.19;5101027;27;45488;-62
2022/01/17 08:12:37;;;;;;;;;69.50;52.50;;;;;5.18;73.99;102917.78;5119185;27;45406;-63
2022/01/17 08:15:05;;;;;;;;;68.50;50.50;;;;;5.19;74.02;102914.28;5118895;27;46282;-64
2022/01/17 08:17:30;;;;;;;;;70.50;49.50;;;;;5.20;74.16;102923.81;5100617;27;45756;-62
2022/01/17 08:19:55;;;;;;;;;72.75;54.25;;;;;5.23;73.95;102916.81;5100026;27;60371;-62
2022/01/17 08:22:21;;;;;;;;;65.00;51.50;;;;;5.23;73.93;102924.63;5118071;27;69742;-63
2022/01/17 08:24:46;;;;;;;;;66.00;52.00;;;;;5.25;73.95;102933.25;5117902;27;74937;-64
2022/01/17 08:27:11;;;;;;;;;65.75;52.00;;;;;5.25;74.15;102934.09;5118251;27;66390;-61
2022/01/17 08:29:37;;;;;;;;;64.50;51.00;;;;;5.27;74.02;102937.53;5118187;27;60123;-64
2022/01/17 08:32:05;;;;;;;;;71.00;53.50;;;;;5.29;74.16;102933.13;5118317;27;61129;-62
2022/01/17 08:34:31;;;;;;;;;68.25;52.75;;;;;5.31;74.28;102938.28;5083390;27;47996;-64
2022/01/17 08:36:57;;;;;;;;;72.50;53.75;;;;;5.33;74.33;102933.88;5118753;27;46833;-64
2022/01/17 08:39:24;;;;;;;;;67.75;53.00;;;;;5.35;74.40;102938.16;5118914;27;45428;-62
2022/01/17 08:41:50;;;;;;;;;72.25;56.00;;;;;5.38;74.36;102944.19;5100574;27;45366;-63
2022/01/17 08:44:17;;;;;;;;;74.25;57.25;;;;;5.42;74.31;102938.00;5082843;27;46283;-61
2022/01/17 08:46:43;;;;;;;;;75.75;56.75;;;;;5.46;74.26;102939.63;5118535;27;45238;-63
2022/01/17 08:49:08;;;;;;;;;78.25;59.75;;;;;5.47;74.43;102944.78;5100035;27;45661;-64
2022/01/17 08:51:34;;;;;;;;;82.50;60.50;;;;;5.52;74.53;102951.63;5099900;27;54044;-63
2022/01/17 08:53:59;;;;;;;;;85.25;65.75;;;;;5.55;74.61;102935.88;5117651;27;64131;-63
2022/01/17 08:56:27;;;;;;;;;84.75;59.75;;;;;5.58;74.72;102941.03;5099009;27;72690;-62
2022/01/17 08:58:53;;;;;;;;;82.25;61.25;;;;;5.63;74.75;102944.34;5118322;27;45329;-63
2022/01/17 09:01:18;;;;;;;;;86.75;66.75;;;;;5.65;74.94;102940.78;5100011;27;45311;-62
2022/01/17 09:03:44;;;;;;;;;86.50;64.50;;;;;5.68;75.01;102939.88;5117775;27;46096;-62
2022/01/17 09:06:09;;;;;;;;;87.00;68.75;;;;;5.71;75.12;102938.91;5118065;27;45413;-61
2022/01/17 09:08:35;;;;;;;;;87.00;66.75;;;;;5.75;75.04;102941.41;5117341;27;66444;-64
2022/01/17 09:11:00;;;;;;;;;79.75;60.75;;;;;5.77;75.18;102963.06;5116537;27;67450;-62
2022/01/17 09:13:25;;;;;;;;;80.50;61.25;;;;;5.80;75.16;102962.13;5098627;27;45465;-61
2022/01/17 09:15:52;;;;;;;;;82.25;60.25;;;;;5.85;75.21;102960.22;5117858;27;50500;-61
2022/01/17 09:18:19;;;;;;;;;81.00;59.75;;;;;5.88;75.13;102969.72;5118292;27;45279;-63
2022/01/17 09:20:44;;;;;;;;;82.50;62.50;;;;;5.90;75.07;102978.34;5118017;27;45300;-63
2022/01/17 09:23:10;;;;;;;;;80.75;62.25;;;;;5.90;75.13;102979.22;5099479;27;46087;-62
2022/01/17 09:25:35;;;;;;;;;83.75;65.25;;;;;5.93;75.11;102986.09;5117166;27;68129;-65
2022/01/17 09:28:01;;;;;;;;;90.00;65.25;;;;;5.94;75.14;102983.44;5099228;27;45695;-63
2022/01/17 09:30:26;;;;;;;;;76.50;56.50;;;;;5.97;75.21;102992.94;5117193;27;53695;-62
2022/01/17 09:32:51;;;;;;;;;80.50;56.25;;;;;5.99;75.40;102992.91;5117799;27;45331;-62
2022/01/17 09:35:17;;;;;;;;;78.75;56.75;;;;;6.02;75.57;102995.47;5098348;27;73053;-63
2022/01/17 09:37:43;;;;;;;;;76.00;56.25;;;;;6.04;75.52;103010.16;5099724;27;45399;-63
2022/01/17 09:40:09;;;;;;;;;77.00;56.25;;;;;6.11;75.62;103017.81;5098925;27;49768;-63
2022/01/17 09:42:37;;;;;;;;;82.25;58.75;;;;;6.14;75.60;103005.50;5117250;27;53847;-61
2022/01/17 09:45:09;;;;;;;;;75.00;54.00;;;;;6.17;75.61;103007.19;5099838;27;45557;-62
2022/01/17 09:47:36;;;;;;;;;82.00;60.50;;;;;6.20;75.65;102999.25;5117826;27;45322;-62
2022/01/17 09:50:03;;;;;;;;;78.00;59.00;;;;;6.24;75.54;103003.50;5117856;27;45599;-62
2022/01/17 09:54:56;;;;;;;;;73.75;54.25;;;;;6.29;75.81;103001.59;5082131;27;45370;-63
2022/01/17 09:57:22;;;;;;;;;76.75;54.75;;;;;6.34;75.91;103014.50;5082321;27;45398;-63
2022/01/17 09:59:47;;;;;;;;;77.50;56.75;;;;;6.37;75.77;103017.88;5082108;27;45324;-63
2022/01/17 10:02:13;;;;;;;;;79.75;59.00;;;;;6.43;75.69;103029.03;5097242;27;69435;-63
2022/01/17 10:04:39;;;;;;;;;75.00;56.75;;;;;6.47;75.77;103028.03;5099065;27;45325;-62
2022/01/17 10:07:05;;;;;;;;;76.25;55.25;;;;;6.53;75.54;103025.22;5117532;27;45305;-64
2022/01/17 10:09:33;;;;;;;;;80.50;59.00;;;;;6.55;75.53;103023.44;5117506;27;45498;-63
2022/01/17 10:12:08;;;;;;;;;82.25;61.25;;;;;6.58;75.60;103054.69;5117112;27;46460;-61
2022/01/17 10:14:38;;;;;;;;;81.75;59.25;;;;;6.61;75.50;103053.75;5117415;27;45291;-61
2022/01/17 10:17:14;;;;;;;;;77.00;59.50;;;;;6.64;75.46;103043.16;5098778;27;45370;-63
2022/01/17 10:19:40;;;;;;;;;87.50;64.75;;;;;6.64;75.46;103064.94;5099166;27;45319;-63
2022/01/17 10:22:30;;;;;;;;;86.25;67.25;;;;;6.66;75.59;103042.25;5081837;27;46219;-62
2022/01/17 10:31:18;;;;;;;;;82.25;60.50;;;;;6.76;75.64;103052.41;5111806;27;45314;-62
2022/01/17 10:36:23;;;;;;;;;81.50;59.00;;;;;6.85;75.64;103040.78;5101332;27;45425;-63
2022/01/17 10:39:06;;;;;;;;;78.00;60.50;;;;;6.90;75.38;103044.09;5082336;27;45346;-64
2022/01/17 10:41:32;;;;;;;;;91.00;72.75;;;;;6.91;75.34;103046.66;5116342;27;45573;-64
2022/01/17 10:43:57;;;;;;;;;100.25;86.25;;;;;6.94;75.52;103045.72;5115778;27;70113;-64
2022/01/17 10:46:23;;;;;;;;;90.50;79.25;;;;;6.96;75.46;103041.28;5115410;27;72193;-64
2022/01/17 10:48:48;;;;;;;;;88.50;71.25;;;;;7.00;75.58;103021.13;5115786;27;45211;-62
2022/01/17 10:51:14;;;;;;;;;99.50;84.50;;;;;7.02;75.58;103003.63;5081152;27;45649;-64
2022/01/17 10:53:40;;;;;;;;;100.75;89.00;;;;;7.05;75.69;102999.16;5116508;27;47914;-63
2022/01/17 10:56:08;;;;;;;;;86.25;74.00;;;;;7.13;75.77;103002.38;5098392;27;45469;-63
2022/01/17 10:58:35;;;;;;;;;87.25;65.25;;;;;7.26;75.93;102994.97;5098734;27;45410;-62
2022/01/17 11:01:12;;;;;;;;;80.75;59.75;;;;;7.41;75.88;102995.34;5098749;27;45340;-64
2022/01/17 11:03:38;;;;;;;;;81.25;63.75;;;;;7.58;75.73;102997.34;5098609;27;45692;-62
2022/01/17 11:06:11;;;;;;;;;82.50;59.00;;;;;7.75;75.34;102985.38;5098386;27;45771;-62
2022/01/17 11:08:38;;;;;;;;;74.25;57.00;;;;;7.89;74.65;102996.19;5098375;27;45279;-62
2022/01/17 11:11:05;;;;;;;;;71.50;55.50;;;;;8.02;74.66;102993.97;5098223;27;45672;-64
2022/01/17 11:13:35;;;;;;;;;66.25;50.75;;;;;8.14;74.13;102993.50;5100122;27;47043;-62
2022/01/17 11:16:04;;;;;;;;;64.75;51.00;;;;;8.24;73.53;102998.38;5120142;27;45688;-63
2022/01/17 11:18:31;;;;;;;;;64.25;49.75;;;;;8.33;73.40;103000.66;5102242;27;45391;-61
2022/01/17 11:20:58;;;;;;;;;63.50;48.75;;;;;8.40;73.11;103001.25;5101491;27;45550;-64
2022/01/17 11:23:24;;;;;;;;;66.00;51.00;;;;;8.48;72.95;102998.34;5101445;27;45802;-63
2022/01/17 11:25:53;;;;;;;;;63.25;49.00;;;;;8.54;72.25;102987.63;5101423;27;45306;-61
2022/01/17 11:28:21;;;;;;;;;62.75;49.25;;;;;8.60;72.16;102988.25;5119989;27;45458;-61
2022/01/17 11:30:47;;;;;;;;;63.50;49.00;;;;;8.67;72.43;102978.34;5101796;27;45438;-63
2022/01/17 11:33:12;;;;;;;;;68.75;52.25;;;;;8.74;72.12;102976.34;5119347;27;46280;-63
2022/01/17 11:35:41;;;;;;;;;70.00;51.25;;;;;8.82;72.16;102976.00;5118802;27;67370;-62
2022/01/17 11:38:10;;;;;;;;;68.25;51.25;;;;;8.92;71.92;102972.09;5119926;27;45373;-64
2022/01/17 11:40:36;;;;;;;;;69.25;51.50;;;;;9.01;71.71;102973.47;5084629;27;45568;-61